sensor_id;sensor_type;location;lat;lon;timestamp;P1;durP1;ratioP1;P2;durP2;ratioP2
4420;SDS011;11824;51.178;13.546;2023-08-01T00:01:01;8.90;;;3.80;;
4420;SDS011;11824;51.178;13.546;2023-08-01T00:03:31;5.00;;;3.60;;
4420;SDS011;11824;51.178;13.546;2023-08-01T00:06:01;6.10;;;4.33;;
4420;SDS011;11824;51.178;13.546;2023-08-01T00:08:30;4.93;;;3.37;;
4420;SDS011;11824;51.178;13.546;2023-08-01T00:10:58;5.73;;;3.33;;
4420;SDS011;11824;51.178;13.546;2023-08-01T00:13:27;6.43;;;3.87;;
4420;SDS011;11824;51.178;13.546;2023-08-01T00:15:56;6.13;;;3.67;;
4420;SDS011;11824;51.178;13.546;2023-08-01T00:18:27;6.60;;;3.63;;
4420;SDS011;11824;51.178;13.546;2023-08-01T00:20:58;10.70;;;4.13;;
4420;SDS011;11824;51.178;13.546;2023-08-01T00:23:26;9.80;;;4.13;;
4420;SDS011;11824;51.178;13.546;2023-08-01T00:25:55;9.40;;;4.30;;
4420;SDS011;11824;51.178;13.546;2023-08-01T00:28:24;6.13;;;3.70;;
4420;SDS011;11824;51.178;13.546;2023-08-01T00:31:01;7.33;;;3.67;;
4420;SDS011;11824;51.178;13.546;2023-08-01T00:33:38;6.53;;;3.50;;
4420;SDS011;11824;51.178;13.546;2023-08-01T00:36:07;9.20;;;5.03;;
4420;SDS011;11824;51.178;13.546;2023-08-01T00:38:37;5.77;;;3.63;;
4420;SDS011;11824;51.178;13.546;2023-08-01T00:41:08;9.97;;;5.03;;
4420;SDS011;11824;51.178;13.546;2023-08-01T00:43:36;7.20;;;3.53;;
4420;SDS011;11824;51.178;13.546;2023-08-01T00:46:06;7.90;;;3.97;;
4420;SDS011;11824;51.178;13.546;2023-08-01T00:48:35;11.33;;;4.23;;
4420;SDS011;11824;51.178;13.546;2023-08-01T00:51:06;8.77;;;4.00;;
4420;SDS011;11824;51.178;13.546;2023-08-01T00:56:23;5.27;;;3.73;;
4420;SDS011;11824;51.178;13.546;2023-08-01T00:58:52;9.00;;;3.83;;
4420;SDS011;11824;51.178;13.546;2023-08-01T01:01:21;6.10;;;3.47;;
4420;SDS011;11824;51.178;13.546;2023-08-01T01:03:50;6.27;;;3.30;;
4420;SDS011;11824;51.178;13.546;2023-08-01T01:06:22;7.00;;;4.03;;
4420;SDS011;11824;51.178;13.546;2023-08-01T01:08:52;5.80;;;4.37;;
4420;SDS011;11824;51.178;13.546;2023-08-01T01:11:22;13.13;;;3.77;;
4420;SDS011;11824;51.178;13.546;2023-08-01T01:13:51;8.23;;;4.20;;
4420;SDS011;11824;51.178;13.546;2023-08-01T01:16:20;7.40;;;3.70;;
4420;SDS011;11824;51.178;13.546;2023-08-01T01:18:49;5.00;;;3.57;;
4420;SDS011;11824;51.178;13.546;2023-08-01T01:21:19;9.27;;;3.87;;
4420;SDS011;11824;51.178;13.546;2023-08-01T01:23:48;6.30;;;3.80;;
4420;SDS011;11824;51.178;13.546;2023-08-01T01:26:18;9.47;;;4.20;;
4420;SDS011;11824;51.178;13.546;2023-08-01T01:28:48;6.10;;;3.60;;
4420;SDS011;11824;51.178;13.546;2023-08-01T01:31:17;5.77;;;3.87;;
4420;SDS011;11824;51.178;13.546;2023-08-01T01:33:47;6.73;;;4.27;;
4420;SDS011;11824;51.178;13.546;2023-08-01T01:36:16;6.70;;;4.20;;
4420;SDS011;11824;51.178;13.546;2023-08-01T01:38:46;10.10;;;4.20;;
4420;SDS011;11824;51.178;13.546;2023-08-01T01:41:15;9.80;;;3.50;;
4420;SDS011;11824;51.178;13.546;2023-08-01T01:43:44;9.00;;;4.47;;
4420;SDS011;11824;51.178;13.546;2023-08-01T01:46:12;7.10;;;4.10;;
4420;SDS011;11824;51.178;13.546;2023-08-01T01:48:41;8.13;;;4.40;;
4420;SDS011;11824;51.178;13.546;2023-08-01T01:51:10;7.37;;;3.90;;
4420;SDS011;11824;51.178;13.546;2023-08-01T01:53:40;4.20;;;3.80;;
4420;SDS011;11824;51.178;13.546;2023-08-01T01:56:09;5.53;;;3.77;;
4420;SDS011;11824;51.178;13.546;2023-08-01T01:58:37;9.50;;;4.10;;
4420;SDS011;11824;51.178;13.546;2023-08-01T02:01:06;6.03;;;4.13;;
4420;SDS011;11824;51.178;13.546;2023-08-01T02:03:35;5.67;;;4.20;;
4420;SDS011;11824;51.178;13.546;2023-08-01T02:06:04;7.53;;;4.60;;
4420;SDS011;11824;51.178;13.546;2023-08-01T02:08:32;5.77;;;4.37;;
4420;SDS011;11824;51.178;13.546;2023-08-01T02:11:03;5.07;;;3.63;;
4420;SDS011;11824;51.178;13.546;2023-08-01T02:13:32;8.10;;;4.27;;
4420;SDS011;11824;51.178;13.546;2023-08-01T02:16:01;5.03;;;4.23;;
4420;SDS011;11824;51.178;13.546;2023-08-01T02:18:29;5.60;;;3.70;;
4420;SDS011;11824;51.178;13.546;2023-08-01T02:20:58;7.77;;;4.83;;
4420;SDS011;11824;51.178;13.546;2023-08-01T02:23:27;7.50;;;3.70;;
4420;SDS011;11824;51.178;13.546;2023-08-01T02:25:56;7.87;;;4.63;;
4420;SDS011;11824;51.178;13.546;2023-08-01T02:28:26;6.93;;;4.67;;
4420;SDS011;11824;51.178;13.546;2023-08-01T02:30:54;8.97;;;4.30;;
4420;SDS011;11824;51.178;13.546;2023-08-01T02:33:23;6.90;;;4.00;;
4420;SDS011;11824;51.178;13.546;2023-08-01T02:35:52;6.37;;;3.53;;
4420;SDS011;11824;51.178;13.546;2023-08-01T02:38:21;4.30;;;3.70;;
4420;SDS011;11824;51.178;13.546;2023-08-01T02:40:49;6.77;;;3.90;;
4420;SDS011;11824;51.178;13.546;2023-08-01T02:43:18;4.63;;;3.37;;
4420;SDS011;11824;51.178;13.546;2023-08-01T02:45:48;5.93;;;3.60;;
4420;SDS011;11824;51.178;13.546;2023-08-01T02:48:17;6.13;;;3.93;;
4420;SDS011;11824;51.178;13.546;2023-08-01T02:50:46;7.87;;;4.20;;
4420;SDS011;11824;51.178;13.546;2023-08-01T02:53:15;5.60;;;3.80;;
4420;SDS011;11824;51.178;13.546;2023-08-01T02:55:44;6.10;;;3.80;;
4420;SDS011;11824;51.178;13.546;2023-08-01T02:58:13;5.27;;;3.50;;
4420;SDS011;11824;51.178;13.546;2023-08-01T03:00:42;5.37;;;3.90;;
4420;SDS011;11824;51.178;13.546;2023-08-01T03:03:12;7.13;;;3.80;;
4420;SDS011;11824;51.178;13.546;2023-08-01T03:05:41;7.83;;;3.57;;
4420;SDS011;11824;51.178;13.546;2023-08-01T03:08:10;6.37;;;3.67;;
4420;SDS011;11824;51.178;13.546;2023-08-01T03:10:39;7.17;;;3.33;;
4420;SDS011;11824;51.178;13.546;2023-08-01T03:13:08;5.57;;;3.03;;
4420;SDS011;11824;51.178;13.546;2023-08-01T03:15:37;5.63;;;3.23;;
4420;SDS011;11824;51.178;13.546;2023-08-01T03:18:05;4.27;;;3.60;;
4420;SDS011;11824;51.178;13.546;2023-08-01T03:20:36;5.10;;;3.47;;
4420;SDS011;11824;51.178;13.546;2023-08-01T03:23:04;6.23;;;4.07;;
4420;SDS011;11824;51.178;13.546;2023-08-01T03:25:34;5.90;;;3.60;;
4420;SDS011;11824;51.178;13.546;2023-08-01T03:28:03;5.47;;;4.57;;
4420;SDS011;11824;51.178;13.546;2023-08-01T03:30:32;5.93;;;3.27;;
4420;SDS011;11824;51.178;13.546;2023-08-01T03:33:01;4.60;;;3.87;;
4420;SDS011;11824;51.178;13.546;2023-08-01T03:35:30;9.03;;;4.00;;
4420;SDS011;11824;51.178;13.546;2023-08-01T03:38:00;8.93;;;3.10;;
4420;SDS011;11824;51.178;13.546;2023-08-01T03:40:29;5.63;;;3.40;;
4420;SDS011;11824;51.178;13.546;2023-08-01T03:42:58;8.03;;;3.63;;
4420;SDS011;11824;51.178;13.546;2023-08-01T03:45:27;6.00;;;3.17;;
4420;SDS011;11824;51.178;13.546;2023-08-01T03:47:56;5.43;;;3.40;;
4420;SDS011;11824;51.178;13.546;2023-08-01T03:50:25;6.13;;;3.60;;
4420;SDS011;11824;51.178;13.546;2023-08-01T03:52:53;5.90;;;3.47;;
4420;SDS011;11824;51.178;13.546;2023-08-01T03:55:23;6.23;;;3.47;;
4420;SDS011;11824;51.178;13.546;2023-08-01T03:57:52;7.87;;;2.90;;
4420;SDS011;11824;51.178;13.546;2023-08-01T04:00:21;5.60;;;3.80;;
4420;SDS011;11824;51.178;13.546;2023-08-01T04:02:50;4.17;;;3.73;;
4420;SDS011;11824;51.178;13.546;2023-08-01T04:05:19;6.77;;;3.00;;
4420;SDS011;11824;51.178;13.546;2023-08-01T04:07:47;5.63;;;3.07;;
4420;SDS011;11824;51.178;13.546;2023-08-01T04:10:16;4.00;;;3.10;;
4420;SDS011;11824;51.178;13.546;2023-08-01T04:12:46;6.10;;;3.30;;
4420;SDS011;11824;51.178;13.546;2023-08-01T04:15:15;4.03;;;3.10;;
4420;SDS011;11824;51.178;13.546;2023-08-01T04:17:44;3.50;;;2.90;;
4420;SDS011;11824;51.178;13.546;2023-08-01T04:20:13;6.30;;;3.33;;
4420;SDS011;11824;51.178;13.546;2023-08-01T04:22:41;4.80;;;3.30;;
4420;SDS011;11824;51.178;13.546;2023-08-01T04:25:10;6.03;;;2.90;;
4420;SDS011;11824;51.178;13.546;2023-08-01T04:27:39;3.93;;;2.63;;
4420;SDS011;11824;51.178;13.546;2023-08-01T04:30:10;3.80;;;2.33;;
4420;SDS011;11824;51.178;13.546;2023-08-01T04:32:38;4.13;;;2.37;;
4420;SDS011;11824;51.178;13.546;2023-08-01T04:35:07;4.77;;;3.20;;
4420;SDS011;11824;51.178;13.546;2023-08-01T04:37:36;4.57;;;3.60;;
4420;SDS011;11824;51.178;13.546;2023-08-01T04:40:05;4.03;;;2.50;;
4420;SDS011;11824;51.178;13.546;2023-08-01T04:42:35;4.20;;;2.33;;
4420;SDS011;11824;51.178;13.546;2023-08-01T04:45:04;3.07;;;2.40;;
4420;SDS011;11824;51.178;13.546;2023-08-01T04:47:35;3.10;;;2.60;;
4420;SDS011;11824;51.178;13.546;2023-08-01T04:50:04;5.80;;;2.70;;
4420;SDS011;11824;51.178;13.546;2023-08-01T04:52:34;3.03;;;1.83;;
4420;SDS011;11824;51.178;13.546;2023-08-01T04:55:03;4.30;;;2.37;;
4420;SDS011;11824;51.178;13.546;2023-08-01T04:57:32;6.60;;;2.27;;
4420;SDS011;11824;51.178;13.546;2023-08-01T05:00:01;3.23;;;2.80;;
4420;SDS011;11824;51.178;13.546;2023-08-01T05:02:30;2.23;;;2.03;;
4420;SDS011;11824;51.178;13.546;2023-08-01T05:05:00;3.80;;;1.73;;
4420;SDS011;11824;51.178;13.546;2023-08-01T05:07:30;3.30;;;2.47;;
4420;SDS011;11824;51.178;13.546;2023-08-01T05:09:58;1.90;;;1.73;;
4420;SDS011;11824;51.178;13.546;2023-08-01T05:12:27;1.40;;;1.30;;
4420;SDS011;11824;51.178;13.546;2023-08-01T05:14:56;3.23;;;1.27;;
4420;SDS011;11824;51.178;13.546;2023-08-01T05:17:25;5.20;;;1.70;;
4420;SDS011;11824;51.178;13.546;2023-08-01T05:19:53;4.70;;;1.67;;
4420;SDS011;11824;51.178;13.546;2023-08-01T05:22:24;2.83;;;1.37;;
4420;SDS011;11824;51.178;13.546;2023-08-01T05:24:52;5.63;;;1.90;;
4420;SDS011;11824;51.178;13.546;2023-08-01T05:27:21;2.33;;;1.50;;
4420;SDS011;11824;51.178;13.546;2023-08-01T05:29:50;3.53;;;1.33;;
4420;SDS011;11824;51.178;13.546;2023-08-01T05:32:19;2.73;;;1.70;;
4420;SDS011;11824;51.178;13.546;2023-08-01T05:34:47;2.67;;;1.80;;
4420;SDS011;11824;51.178;13.546;2023-08-01T05:37:16;2.87;;;1.10;;
4420;SDS011;11824;51.178;13.546;2023-08-01T05:39:46;1.90;;;1.60;;
4420;SDS011;11824;51.178;13.546;2023-08-01T05:42:15;2.40;;;1.27;;
4420;SDS011;11824;51.178;13.546;2023-08-01T05:44:44;1.80;;;1.20;;
4420;SDS011;11824;51.178;13.546;2023-08-01T05:47:12;4.83;;;1.33;;
4420;SDS011;11824;51.178;13.546;2023-08-01T05:49:41;1.10;;;1.00;;
4420;SDS011;11824;51.178;13.546;2023-08-01T05:52:10;1.23;;;1.13;;
4420;SDS011;11824;51.178;13.546;2023-08-01T05:54:39;2.73;;;1.10;;
4420;SDS011;11824;51.178;13.546;2023-08-01T05:57:09;1.77;;;1.30;;
4420;SDS011;11824;51.178;13.546;2023-08-01T05:59:37;8.03;;;2.20;;
4420;SDS011;11824;51.178;13.546;2023-08-01T06:02:06;2.20;;;1.47;;
4420;SDS011;11824;51.178;13.546;2023-08-01T06:04:35;1.93;;;1.30;;
4420;SDS011;11824;51.178;13.546;2023-08-01T06:07:05;1.93;;;1.53;;
4420;SDS011;11824;51.178;13.546;2023-08-01T06:09:34;1.83;;;1.20;;
4420;SDS011;11824;51.178;13.546;2023-08-01T06:12:03;2.40;;;1.57;;
4420;SDS011;11824;51.178;13.546;2023-08-01T06:14:33;7.60;;;1.67;;
4420;SDS011;11824;51.178;13.546;2023-08-01T06:17:02;2.00;;;1.10;;
4420;SDS011;11824;51.178;13.546;2023-08-01T06:19:31;2.50;;;1.67;;
4420;SDS011;11824;51.178;13.546;2023-08-01T06:22:00;3.97;;;1.20;;
4420;SDS011;11824;51.178;13.546;2023-08-01T06:24:29;1.80;;;1.27;;
4420;SDS011;11824;51.178;13.546;2023-08-01T06:26:57;1.60;;;1.30;;
4420;SDS011;11824;51.178;13.546;2023-08-01T06:29:26;1.60;;;1.40;;
4420;SDS011;11824;51.178;13.546;2023-08-01T06:31:56;1.43;;;1.10;;
4420;SDS011;11824;51.178;13.546;2023-08-01T06:34:25;1.60;;;1.37;;
4420;SDS011;11824;51.178;13.546;2023-08-01T06:36:54;2.40;;;1.10;;
4420;SDS011;11824;51.178;13.546;2023-08-01T06:39:23;1.97;;;1.40;;
4420;SDS011;11824;51.178;13.546;2023-08-01T06:41:51;1.73;;;1.50;;
4420;SDS011;11824;51.178;13.546;2023-08-01T06:44:20;1.60;;;1.13;;
4420;SDS011;11824;51.178;13.546;2023-08-01T06:46:49;3.73;;;1.43;;
4420;SDS011;11824;51.178;13.546;2023-08-01T06:49:19;6.13;;;1.90;;
4420;SDS011;11824;51.178;13.546;2023-08-01T06:51:48;1.70;;;1.60;;
4420;SDS011;11824;51.178;13.546;2023-08-01T06:54:16;1.50;;;1.40;;
4420;SDS011;11824;51.178;13.546;2023-08-01T06:56:45;10.30;;;1.60;;
4420;SDS011;11824;51.178;13.546;2023-08-01T06:59:14;2.03;;;1.83;;
4420;SDS011;11824;51.178;13.546;2023-08-01T07:01:43;5.57;;;2.10;;
4420;SDS011;11824;51.178;13.546;2023-08-01T07:04:12;2.37;;;1.40;;
4420;SDS011;11824;51.178;13.546;2023-08-01T07:06:43;2.10;;;1.90;;
4420;SDS011;11824;51.178;13.546;2023-08-01T07:09:12;5.63;;;1.50;;
4420;SDS011;11824;51.178;13.546;2023-08-01T07:11:41;2.30;;;2.10;;
4420;SDS011;11824;51.178;13.546;2023-08-01T07:14:10;2.10;;;1.90;;
4420;SDS011;11824;51.178;13.546;2023-08-01T07:16:38;2.50;;;1.90;;
4420;SDS011;11824;51.178;13.546;2023-08-01T07:19:08;3.73;;;2.07;;
4420;SDS011;11824;51.178;13.546;2023-08-01T07:21:36;8.63;;;2.17;;
4420;SDS011;11824;51.178;13.546;2023-08-01T07:24:06;2.07;;;1.67;;
4420;SDS011;11824;51.178;13.546;2023-08-01T07:26:35;2.30;;;2.10;;
4420;SDS011;11824;51.178;13.546;2023-08-01T07:29:04;3.57;;;2.10;;
4420;SDS011;11824;51.178;13.546;2023-08-01T07:31:34;2.70;;;2.20;;
4420;SDS011;11824;51.178;13.546;2023-08-01T07:34:03;4.53;;;1.83;;
4420;SDS011;11824;51.178;13.546;2023-08-01T07:36:32;3.43;;;2.00;;
4420;SDS011;11824;51.178;13.546;2023-08-01T07:39:01;3.13;;;2.17;;
4420;SDS011;11824;51.178;13.546;2023-08-01T07:41:31;2.67;;;2.20;;
4420;SDS011;11824;51.178;13.546;2023-08-01T07:44:01;3.23;;;1.73;;
4420;SDS011;11824;51.178;13.546;2023-08-01T07:46:30;2.33;;;2.13;;
4420;SDS011;11824;51.178;13.546;2023-08-01T07:49:00;5.93;;;2.53;;
4420;SDS011;11824;51.178;13.546;2023-08-01T07:51:28;3.57;;;2.53;;
4420;SDS011;11824;51.178;13.546;2023-08-01T07:53:57;5.80;;;2.57;;
4420;SDS011;11824;51.178;13.546;2023-08-01T07:56:26;4.87;;;2.70;;
4420;SDS011;11824;51.178;13.546;2023-08-01T07:58:56;2.70;;;1.77;;
4420;SDS011;11824;51.178;13.546;2023-08-01T08:01:25;2.23;;;2.00;;
4420;SDS011;11824;51.178;13.546;2023-08-01T08:03:53;2.13;;;1.87;;
4420;SDS011;11824;51.178;13.546;2023-08-01T08:06:22;2.40;;;1.93;;
4420;SDS011;11824;51.178;13.546;2023-08-01T08:08:51;3.20;;;1.80;;
4420;SDS011;11824;51.178;13.546;2023-08-01T08:11:20;3.13;;;2.37;;
4420;SDS011;11824;51.178;13.546;2023-08-01T08:13:49;3.53;;;2.00;;
4420;SDS011;11824;51.178;13.546;2023-08-01T08:16:19;3.67;;;2.10;;
4420;SDS011;11824;51.178;13.546;2023-08-01T08:18:48;4.10;;;1.73;;
4420;SDS011;11824;51.178;13.546;2023-08-01T08:21:17;1.57;;;1.47;;
4420;SDS011;11824;51.178;13.546;2023-08-01T08:23:46;3.20;;;1.47;;
4420;SDS011;11824;51.178;13.546;2023-08-01T08:26:14;1.30;;;1.20;;
4420;SDS011;11824;51.178;13.546;2023-08-01T08:28:43;2.50;;;2.00;;
4420;SDS011;11824;51.178;13.546;2023-08-01T08:31:12;3.83;;;1.70;;
4420;SDS011;11824;51.178;13.546;2023-08-01T08:33:42;2.70;;;1.60;;
4420;SDS011;11824;51.178;13.546;2023-08-01T08:36:11;2.40;;;1.50;;
4420;SDS011;11824;51.178;13.546;2023-08-01T08:38:39;2.53;;;1.07;;
4420;SDS011;11824;51.178;13.546;2023-08-01T08:41:09;1.40;;;1.30;;
4420;SDS011;11824;51.178;13.546;2023-08-01T08:43:38;3.87;;;1.40;;
4420;SDS011;11824;51.178;13.546;2023-08-01T08:46:09;1.90;;;1.50;;
4420;SDS011;11824;51.178;13.546;2023-08-01T08:48:38;1.20;;;1.10;;
4420;SDS011;11824;51.178;13.546;2023-08-01T08:51:11;6.57;;;1.20;;
4420;SDS011;11824;51.178;13.546;2023-08-01T08:53:41;1.50;;;1.00;;
4420;SDS011;11824;51.178;13.546;2023-08-01T08:56:12;1.97;;;1.27;;
4420;SDS011;11824;51.178;13.546;2023-08-01T08:58:41;6.20;;;1.00;;
4420;SDS011;11824;51.178;13.546;2023-08-01T09:01:10;1.33;;;1.10;;
4420;SDS011;11824;51.178;13.546;2023-08-01T09:03:40;6.40;;;1.00;;
4420;SDS011;11824;51.178;13.546;2023-08-01T09:06:13;1.70;;;0.73;;
4420;SDS011;11824;51.178;13.546;2023-08-01T09:08:50;1.53;;;1.43;;
4420;SDS011;11824;51.178;13.546;2023-08-01T09:11:22;1.20;;;1.10;;
4420;SDS011;11824;51.178;13.546;2023-08-01T09:13:52;1.30;;;1.20;;
4420;SDS011;11824;51.178;13.546;2023-08-01T09:16:21;2.07;;;1.33;;
4420;SDS011;11824;51.178;13.546;2023-08-01T09:18:50;3.93;;;1.30;;
4420;SDS011;11824;51.178;13.546;2023-08-01T09:21:21;1.87;;;1.30;;
4420;SDS011;11824;51.178;13.546;2023-08-01T09:23:50;4.90;;;1.60;;
4420;SDS011;11824;51.178;13.546;2023-08-01T09:26:19;1.43;;;1.13;;
4420;SDS011;11824;51.178;13.546;2023-08-01T09:28:55;2.60;;;1.40;;
4420;SDS011;11824;51.178;13.546;2023-08-01T09:31:28;3.00;;;1.37;;
4420;SDS011;11824;51.178;13.546;2023-08-01T09:33:57;1.53;;;1.10;;
4420;SDS011;11824;51.178;13.546;2023-08-01T09:36:28;4.07;;;1.30;;
4420;SDS011;11824;51.178;13.546;2023-08-01T09:38:59;1.07;;;0.97;;
4420;SDS011;11824;51.178;13.546;2023-08-01T09:41:29;1.57;;;1.30;;
4420;SDS011;11824;51.178;13.546;2023-08-01T09:43:58;1.10;;;1.00;;
4420;SDS011;11824;51.178;13.546;2023-08-01T09:46:27;1.20;;;1.07;;
4420;SDS011;11824;51.178;13.546;2023-08-01T09:49:06;1.47;;;1.17;;
4420;SDS011;11824;51.178;13.546;2023-08-01T09:51:47;1.77;;;1.10;;
4420;SDS011;11824;51.178;13.546;2023-08-01T09:54:16;1.07;;;0.97;;
4420;SDS011;11824;51.178;13.546;2023-08-01T09:56:46;1.40;;;1.30;;
4420;SDS011;11824;51.178;13.546;2023-08-01T09:59:18;3.37;;;1.60;;
4420;SDS011;11824;51.178;13.546;2023-08-01T10:01:48;4.20;;;1.13;;
4420;SDS011;11824;51.178;13.546;2023-08-01T10:04:19;1.57;;;1.37;;
4420;SDS011;11824;51.178;13.546;2023-08-01T10:06:53;1.50;;;1.40;;
4420;SDS011;11824;51.178;13.546;2023-08-01T10:09:25;1.57;;;1.27;;
4420;SDS011;11824;51.178;13.546;2023-08-01T10:11:56;2.83;;;1.10;;
4420;SDS011;11824;51.178;13.546;2023-08-01T10:14:25;1.10;;;1.00;;
4420;SDS011;11824;51.178;13.546;2023-08-01T10:16:54;1.57;;;1.40;;
4420;SDS011;11824;51.178;13.546;2023-08-01T10:19:23;2.10;;;1.03;;
4420;SDS011;11824;51.178;13.546;2023-08-01T10:21:54;1.23;;;1.13;;
4420;SDS011;11824;51.178;13.546;2023-08-01T10:24:24;2.63;;;1.90;;
4420;SDS011;11824;51.178;13.546;2023-08-01T10:26:55;1.67;;;1.20;;
4420;SDS011;11824;51.178;13.546;2023-08-01T10:29:34;1.97;;;1.27;;
4420;SDS011;11824;51.178;13.546;2023-08-01T10:32:05;4.97;;;1.30;;
4420;SDS011;11824;51.178;13.546;2023-08-01T10:34:35;1.47;;;1.27;;
4420;SDS011;11824;51.178;13.546;2023-08-01T10:37:05;2.60;;;1.20;;
4420;SDS011;11824;51.178;13.546;2023-08-01T10:39:34;1.40;;;1.30;;
4420;SDS011;11824;51.178;13.546;2023-08-01T10:42:03;2.17;;;1.40;;
4420;SDS011;11824;51.178;13.546;2023-08-01T10:44:33;1.37;;;1.27;;
4420;SDS011;11824;51.178;13.546;2023-08-01T10:47:12;1.33;;;0.90;;
4420;SDS011;11824;51.178;13.546;2023-08-01T10:49:41;3.33;;;1.10;;
4420;SDS011;11824;51.178;13.546;2023-08-01T10:52:19;1.53;;;1.03;;
4420;SDS011;11824;51.178;13.546;2023-08-01T10:54:55;3.90;;;1.97;;
4420;SDS011;11824;51.178;13.546;2023-08-01T10:57:26;2.40;;;1.40;;
4420;SDS011;11824;51.178;13.546;2023-08-01T10:59:56;2.23;;;1.40;;
4420;SDS011;11824;51.178;13.546;2023-08-01T11:02:25;1.20;;;1.10;;
4420;SDS011;11824;51.178;13.546;2023-08-01T11:04:59;3.27;;;0.90;;
4420;SDS011;11824;51.178;13.546;2023-08-01T11:07:30;1.87;;;1.20;;
4420;SDS011;11824;51.178;13.546;2023-08-01T11:10:03;3.17;;;1.10;;
4420;SDS011;11824;51.178;13.546;2023-08-01T11:12:34;3.63;;;1.30;;
4420;SDS011;11824;51.178;13.546;2023-08-01T11:15:04;1.37;;;1.23;;
4420;SDS011;11824;51.178;13.546;2023-08-01T11:17:35;1.33;;;0.90;;
4420;SDS011;11824;51.178;13.546;2023-08-01T11:20:05;2.10;;;0.90;;
4420;SDS011;11824;51.178;13.546;2023-08-01T11:22:37;1.00;;;0.90;;
4420;SDS011;11824;51.178;13.546;2023-08-01T11:25:17;1.30;;;1.20;;
4420;SDS011;11824;51.178;13.546;2023-08-01T11:27:46;4.30;;;1.13;;
4420;SDS011;11824;51.178;13.546;2023-08-01T11:30:14;1.10;;;1.00;;
4420;SDS011;11824;51.178;13.546;2023-08-01T11:32:43;1.20;;;1.00;;
4420;SDS011;11824;51.178;13.546;2023-08-01T11:35:16;7.87;;;1.10;;
4420;SDS011;11824;51.178;13.546;2023-08-01T11:37:47;2.43;;;1.03;;
4420;SDS011;11824;51.178;13.546;2023-08-01T11:40:17;1.10;;;0.97;;
4420;SDS011;11824;51.178;13.546;2023-08-01T11:42:48;1.10;;;0.90;;
4420;SDS011;11824;51.178;13.546;2023-08-01T11:45:20;2.20;;;1.10;;
4420;SDS011;11824;51.178;13.546;2023-08-01T11:47:49;1.53;;;1.00;;
4420;SDS011;11824;51.178;13.546;2023-08-01T11:50:20;1.30;;;1.10;;
4420;SDS011;11824;51.178;13.546;2023-08-01T11:52:51;3.90;;;1.30;;
4420;SDS011;11824;51.178;13.546;2023-08-01T11:55:21;1.90;;;1.13;;
4420;SDS011;11824;51.178;13.546;2023-08-01T11:57:51;1.33;;;0.93;;
4420;SDS011;11824;51.178;13.546;2023-08-01T12:00:21;6.63;;;1.93;;
4420;SDS011;11824;51.178;13.546;2023-08-01T12:02:51;4.20;;;1.47;;
4420;SDS011;11824;51.178;13.546;2023-08-01T12:05:30;3.33;;;1.20;;
4420;SDS011;11824;51.178;13.546;2023-08-01T12:08:10;7.47;;;2.07;;
4420;SDS011;11824;51.178;13.546;2023-08-01T12:10:40;3.03;;;2.07;;
4420;SDS011;11824;51.178;13.546;2023-08-01T12:13:19;5.80;;;1.60;;
4420;SDS011;11824;51.178;13.546;2023-08-01T12:15:49;2.40;;;1.13;;
4420;SDS011;11824;51.178;13.546;2023-08-01T12:18:19;2.43;;;1.57;;
4420;SDS011;11824;51.178;13.546;2023-08-01T12:21:09;2.50;;;1.40;;
4420;SDS011;11824;51.178;13.546;2023-08-01T12:23:39;3.03;;;1.20;;
4420;SDS011;11824;51.178;13.546;2023-08-01T12:26:08;1.90;;;1.63;;
4420;SDS011;11824;51.178;13.546;2023-08-01T12:28:36;2.87;;;1.20;;
4420;SDS011;11824;51.178;13.546;2023-08-01T12:31:05;1.10;;;1.00;;
4420;SDS011;11824;51.178;13.546;2023-08-01T12:33:34;2.57;;;1.10;;
4420;SDS011;11824;51.178;13.546;2023-08-01T12:36:03;3.03;;;1.33;;
4420;SDS011;11824;51.178;13.546;2023-08-01T12:38:32;1.53;;;1.17;;
4420;SDS011;11824;51.178;13.546;2023-08-01T12:41:02;2.13;;;0.90;;
4420;SDS011;11824;51.178;13.546;2023-08-01T12:43:31;2.83;;;1.40;;
4420;SDS011;11824;51.178;13.546;2023-08-01T12:46:00;1.20;;;0.90;;
4420;SDS011;11824;51.178;13.546;2023-08-01T12:48:29;1.27;;;1.07;;
4420;SDS011;11824;51.178;13.546;2023-08-01T12:50:58;2.70;;;1.33;;
4420;SDS011;11824;51.178;13.546;2023-08-01T12:53:26;2.20;;;1.10;;
4420;SDS011;11824;51.178;13.546;2023-08-01T12:55:55;1.97;;;0.97;;
4420;SDS011;11824;51.178;13.546;2023-08-01T12:58:25;1.27;;;1.17;;
4420;SDS011;11824;51.178;13.546;2023-08-01T13:00:55;1.20;;;1.10;;
4420;SDS011;11824;51.178;13.546;2023-08-01T13:03:24;2.50;;;1.23;;
4420;SDS011;11824;51.178;13.546;2023-08-01T13:05:56;2.33;;;1.40;;
4420;SDS011;11824;51.178;13.546;2023-08-01T13:08:25;1.30;;;1.20;;
4420;SDS011;11824;51.178;13.546;2023-08-01T13:10:55;1.20;;;1.10;;
4420;SDS011;11824;51.178;13.546;2023-08-01T13:13:27;2.17;;;1.40;;
4420;SDS011;11824;51.178;13.546;2023-08-01T13:15:56;1.30;;;1.20;;
4420;SDS011;11824;51.178;13.546;2023-08-01T13:18:25;1.83;;;1.17;;
4420;SDS011;11824;51.178;13.546;2023-08-01T13:20:53;2.00;;;1.57;;
4420;SDS011;11824;51.178;13.546;2023-08-01T13:23:25;2.07;;;1.60;;
4420;SDS011;11824;51.178;13.546;2023-08-01T13:25:54;4.80;;;1.43;;
4420;SDS011;11824;51.178;13.546;2023-08-01T13:28:25;2.10;;;1.30;;
4420;SDS011;11824;51.178;13.546;2023-08-01T13:30:55;2.70;;;1.93;;
4420;SDS011;11824;51.178;13.546;2023-08-01T13:33:23;3.43;;;1.50;;
4420;SDS011;11824;51.178;13.546;2023-08-01T13:35:52;2.23;;;1.93;;
4420;SDS011;11824;51.178;13.546;2023-08-01T13:38:21;4.60;;;1.97;;
4420;SDS011;11824;51.178;13.546;2023-08-01T13:40:50;2.90;;;2.03;;
4420;SDS011;11824;51.178;13.546;2023-08-01T13:43:19;3.00;;;2.40;;
4420;SDS011;11824;51.178;13.546;2023-08-01T13:45:49;3.27;;;1.90;;
4420;SDS011;11824;51.178;13.546;2023-08-01T13:48:20;1.90;;;1.80;;
4420;SDS011;11824;51.178;13.546;2023-08-01T13:50:48;1.73;;;1.63;;
4420;SDS011;11824;51.178;13.546;2023-08-01T13:53:17;2.43;;;2.23;;
4420;SDS011;11824;51.178;13.546;2023-08-01T13:55:46;2.73;;;2.53;;
4420;SDS011;11824;51.178;13.546;2023-08-01T13:58:15;3.33;;;3.03;;
4420;SDS011;11824;51.178;13.546;2023-08-01T14:00:44;2.73;;;2.53;;
4420;SDS011;11824;51.178;13.546;2023-08-01T14:03:14;3.93;;;3.37;;
4420;SDS011;11824;51.178;13.546;2023-08-01T14:05:43;4.47;;;3.73;;
4420;SDS011;11824;51.178;13.546;2023-08-01T14:08:12;4.83;;;3.33;;
4420;SDS011;11824;51.178;13.546;2023-08-01T14:10:42;4.57;;;3.10;;
4420;SDS011;11824;51.178;13.546;2023-08-01T14:13:11;3.90;;;3.50;;
4420;SDS011;11824;51.178;13.546;2023-08-01T14:15:39;3.23;;;3.03;;
4420;SDS011;11824;51.178;13.546;2023-08-01T14:18:08;3.43;;;2.73;;
4420;SDS011;11824;51.178;13.546;2023-08-01T14:20:38;3.93;;;3.30;;
4420;SDS011;11824;51.178;13.546;2023-08-01T14:23:07;4.77;;;3.07;;
4420;SDS011;11824;51.178;13.546;2023-08-01T14:25:36;6.07;;;3.73;;
4420;SDS011;11824;51.178;13.546;2023-08-01T14:28:04;3.47;;;3.17;;
4420;SDS011;11824;51.178;13.546;2023-08-01T14:30:33;4.30;;;3.90;;
4420;SDS011;11824;51.178;13.546;2023-08-01T14:33:02;4.10;;;3.70;;
4420;SDS011;11824;51.178;13.546;2023-08-01T14:35:32;4.30;;;3.90;;
4420;SDS011;11824;51.178;13.546;2023-08-01T14:38:02;8.93;;;3.40;;
4420;SDS011;11824;51.178;13.546;2023-08-01T14:40:32;5.20;;;4.10;;
4420;SDS011;11824;51.178;13.546;2023-08-01T14:43:02;4.03;;;3.63;;
4420;SDS011;11824;51.178;13.546;2023-08-01T14:45:30;4.10;;;3.67;;
4420;SDS011;11824;51.178;13.546;2023-08-01T14:47:59;4.70;;;3.67;;
4420;SDS011;11824;51.178;13.546;2023-08-01T14:50:28;3.87;;;3.13;;
4420;SDS011;11824;51.178;13.546;2023-08-01T14:52:56;3.90;;;3.60;;
4420;SDS011;11824;51.178;13.546;2023-08-01T14:55:27;4.50;;;4.10;;
4420;SDS011;11824;51.178;13.546;2023-08-01T14:57:56;5.73;;;3.77;;
4420;SDS011;11824;51.178;13.546;2023-08-01T15:00:25;6.97;;;3.97;;
4420;SDS011;11824;51.178;13.546;2023-08-01T15:02:53;3.97;;;3.67;;
4420;SDS011;11824;51.178;13.546;2023-08-01T15:05:24;4.60;;;4.17;;